sensor_id;sensor_type;location;lat;lon;timestamp;temperature;humidity
9414;DHT22;4746;35.664;139.738;2024-02-26T00:02:05;8.70;99.90
9414;DHT22;4746;35.664;139.738;2024-02-26T00:04:33;8.70;99.90
9414;DHT22;4746;35.664;139.738;2024-02-26T00:07:00;8.80;99.90
9414;DHT22;4746;35.664;139.738;2024-02-26T00:09:28;8.70;99.90
9414;DHT22;4746;35.664;139.738;2024-02-26T00:11:56;8.70;99.90
9414;DHT22;4746;35.664;139.738;2024-02-26T00:14:25;8.70;99.90
9414;DHT22;4746;35.664;139.738;2024-02-26T00:16:53;8.70;99.90
9414;DHT22;4746;35.664;139.738;2024-02-26T00:19:20;8.80;99.90
9414;DHT22;4746;35.664;139.738;2024-02-26T00:21:48;8.80;99.90
9414;DHT22;4746;35.664;139.738;2024-02-26T00:24:16;8.80;98.50
9414;DHT22;4746;35.664;139.738;2024-02-26T00:26:44;8.80;99.70
9414;DHT22;4746;35.664;139.738;2024-02-26T00:29:11;8.80;95.90
9414;DHT22;4746;35.664;139.738;2024-02-26T00:31:39;8.80;94.80
9414;DHT22;4746;35.664;139.738;2024-02-26T00:34:06;8.90;96.70
9414;DHT22;4746;35.664;139.738;2024-02-26T00:36:34;8.90;84.20
9414;DHT22;4746;35.664;139.738;2024-02-26T00:39:01;8.90;85.10
9414;DHT22;4746;35.664;139.738;2024-02-26T00:41:30;8.90;92.30
9414;DHT22;4746;35.664;139.738;2024-02-26T00:43:58;8.90;91.70
9414;DHT22;4746;35.664;139.738;2024-02-26T00:46:26;9.00;90.50
9414;DHT22;4746;35.664;139.738;2024-02-26T00:48:54;9.00;92.80
9414;DHT22;4746;35.664;139.738;2024-02-26T00:51:23;9.00;90.30
9414;DHT22;4746;35.664;139.738;2024-02-26T00:53:51;9.10;88.60
9414;DHT22;4746;35.664;139.738;2024-02-26T00:56:23;9.10;85.10
9414;DHT22;4746;35.664;139.738;2024-02-26T00:58:52;9.10;84.70
9414;DHT22;4746;35.664;139.738;2024-02-26T01:01:21;9.20;91.50
9414;DHT22;4746;35.664;139.738;2024-02-26T01:03:49;9.20;84.40
9414;DHT22;4746;35.664;139.738;2024-02-26T01:06:17;9.20;79.20
9414;DHT22;4746;35.664;139.738;2024-02-26T01:08:44;9.20;82.60
9414;DHT22;4746;35.664;139.738;2024-02-26T01:11:12;9.20;74.30
9414;DHT22;4746;35.664;139.738;2024-02-26T01:13:39;9.30;69.70
9414;DHT22;4746;35.664;139.738;2024-02-26T01:16:07;9.30;66.70
9414;DHT22;4746;35.664;139.738;2024-02-26T01:18:35;9.30;67.90
9414;DHT22;4746;35.664;139.738;2024-02-26T01:21:02;9.30;69.90
9414;DHT22;4746;35.664;139.738;2024-02-26T01:23:33;9.30;63.20
9414;DHT22;4746;35.664;139.738;2024-02-26T01:26:03;9.30;64.40
9414;DHT22;4746;35.664;139.738;2024-02-26T01:28:31;9.40;71.50
9414;DHT22;4746;35.664;139.738;2024-02-26T01:31:00;9.40;65.50
9414;DHT22;4746;35.664;139.738;2024-02-26T01:33:27;9.40;65.10
9414;DHT22;4746;35.664;139.738;2024-02-26T01:35:57;9.40;64.10
9414;DHT22;4746;35.664;139.738;2024-02-26T01:38:27;9.50;63.00
9414;DHT22;4746;35.664;139.738;2024-02-26T01:40:57;9.50;63.20
9414;DHT22;4746;35.664;139.738;2024-02-26T01:43:24;9.60;62.80
9414;DHT22;4746;35.664;139.738;2024-02-26T01:45:54;9.60;61.10
9414;DHT22;4746;35.664;139.738;2024-02-26T01:48:22;9.60;60.00
9414;DHT22;4746;35.664;139.738;2024-02-26T01:50:50;9.50;59.20
9414;DHT22;4746;35.664;139.738;2024-02-26T01:53:19;9.60;60.60
9414;DHT22;4746;35.664;139.738;2024-02-26T01:55:47;9.60;61.90
9414;DHT22;4746;35.664;139.738;2024-02-26T01:58:16;9.60;60.20
9414;DHT22;4746;35.664;139.738;2024-02-26T02:00:45;9.60;60.30
9414;DHT22;4746;35.664;139.738;2024-02-26T02:03:13;9.70;61.00
9414;DHT22;4746;35.664;139.738;2024-02-26T02:05:41;9.80;61.80
9414;DHT22;4746;35.664;139.738;2024-02-26T02:08:11;9.90;61.00
9414;DHT22;4746;35.664;139.738;2024-02-26T02:10:42;10.00;55.20
9414;DHT22;4746;35.664;139.738;2024-02-26T02:13:10;10.10;53.30
9414;DHT22;4746;35.664;139.738;2024-02-26T02:15:41;10.10;52.30
9414;DHT22;4746;35.664;139.738;2024-02-26T02:18:09;10.10;52.10
9414;DHT22;4746;35.664;139.738;2024-02-26T02:20:37;10.20;52.90
9414;DHT22;4746;35.664;139.738;2024-02-26T02:23:05;10.20;53.40
9414;DHT22;4746;35.664;139.738;2024-02-26T02:25:35;10.30;53.90
9414;DHT22;4746;35.664;139.738;2024-02-26T02:28:03;10.30;53.40
9414;DHT22;4746;35.664;139.738;2024-02-26T02:30:31;10.30;47.10
9414;DHT22;4746;35.664;139.738;2024-02-26T02:33:02;10.20;47.30
9414;DHT22;4746;35.664;139.738;2024-02-26T02:35:32;10.30;47.20
9414;DHT22;4746;35.664;139.738;2024-02-26T02:37:59;10.30;46.90
9414;DHT22;4746;35.664;139.738;2024-02-26T02:40:27;10.40;48.50
9414;DHT22;4746;35.664;139.738;2024-02-26T02:42:54;10.50;49.60
9414;DHT22;4746;35.664;139.738;2024-02-26T02:45:22;10.60;48.60
9414;DHT22;4746;35.664;139.738;2024-02-26T02:47:49;10.80;50.20
9414;DHT22;4746;35.664;139.738;2024-02-26T02:50:17;10.80;46.90
9414;DHT22;4746;35.664;139.738;2024-02-26T02:52:45;10.70;44.50
9414;DHT22;4746;35.664;139.738;2024-02-26T02:55:12;10.70;43.20
9414;DHT22;4746;35.664;139.738;2024-02-26T02:57:40;10.70;42.70
9414;DHT22;4746;35.664;139.738;2024-02-26T03:00:12;10.70;42.70
9414;DHT22;4746;35.664;139.738;2024-02-26T03:02:41;10.80;43.80
9414;DHT22;4746;35.664;139.738;2024-02-26T03:05:11;10.90;43.00
9414;DHT22;4746;35.664;139.738;2024-02-26T03:07:41;11.00;45.30
9414;DHT22;4746;35.664;139.738;2024-02-26T03:10:08;11.00;43.40
9414;DHT22;4746;35.664;139.738;2024-02-26T03:12:36;11.00;42.40
9414;DHT22;4746;35.664;139.738;2024-02-26T03:15:04;10.90;42.80
9414;DHT22;4746;35.664;139.738;2024-02-26T03:17:32;11.00;42.90
9414;DHT22;4746;35.664;139.738;2024-02-26T03:19:59;11.10;44.10
9414;DHT22;4746;35.664;139.738;2024-02-26T03:22:27;11.20;43.70
9414;DHT22;4746;35.664;139.738;2024-02-26T03:24:54;11.20;43.20
9414;DHT22;4746;35.664;139.738;2024-02-26T03:27:22;11.30;44.00
9414;DHT22;4746;35.664;139.738;2024-02-26T03:29:49;11.20;41.70
9414;DHT22;4746;35.664;139.738;2024-02-26T03:32:19;11.30;42.70
9414;DHT22;4746;35.664;139.738;2024-02-26T03:34:46;11.50;43.40
9414;DHT22;4746;35.664;139.738;2024-02-26T03:37:14;11.50;43.00
9414;DHT22;4746;35.664;139.738;2024-02-26T03:39:41;11.60;42.80
9414;DHT22;4746;35.664;139.738;2024-02-26T03:42:09;11.70;43.10
9414;DHT22;4746;35.664;139.738;2024-02-26T03:44:36;11.70;40.60
9414;DHT22;4746;35.664;139.738;2024-02-26T03:47:07;11.80;40.90
9414;DHT22;4746;35.664;139.738;2024-02-26T03:49:36;11.80;39.40
9414;DHT22;4746;35.664;139.738;2024-02-26T03:52:04;11.70;38.60
9414;DHT22;4746;35.664;139.738;2024-02-26T03:54:31;11.90;39.10
9414;DHT22;4746;35.664;139.738;2024-02-26T03:56:59;12.00;38.30
9414;DHT22;4746;35.664;139.738;2024-02-26T03:59:29;12.00;38.50
9414;DHT22;4746;35.664;139.738;2024-02-26T04:01:56;12.00;38.00
9414;DHT22;4746;35.664;139.738;2024-02-26T04:04:35;12.10;37.90
9414;DHT22;4746;35.664;139.738;2024-02-26T04:07:06;12.20;38.70
9414;DHT22;4746;35.664;139.738;2024-02-26T04:09:34;12.40;38.90
9414;DHT22;4746;35.664;139.738;2024-02-26T04:12:02;12.40;36.60
9414;DHT22;4746;35.664;139.738;2024-02-26T04:14:35;12.40;36.40
9414;DHT22;4746;35.664;139.738;2024-02-26T04:17:03;12.40;35.00
9414;DHT22;4746;35.664;139.738;2024-02-26T04:19:31;12.30;35.00
9414;DHT22;4746;35.664;139.738;2024-02-26T04:21:59;12.30;36.10
9414;DHT22;4746;35.664;139.738;2024-02-26T04:24:27;12.40;36.10
9414;DHT22;4746;35.664;139.738;2024-02-26T04:26:56;12.60;36.60
9414;DHT22;4746;35.664;139.738;2024-02-26T04:29:24;12.60;34.90
9414;DHT22;4746;35.664;139.738;2024-02-26T04:31:51;12.50;34.60
9414;DHT22;4746;35.664;139.738;2024-02-26T04:34:19;12.50;35.50
9414;DHT22;4746;35.664;139.738;2024-02-26T04:36:47;12.60;35.50
9414;DHT22;4746;35.664;139.738;2024-02-26T04:39:14;12.80;36.20
9414;DHT22;4746;35.664;139.738;2024-02-26T04:41:50;12.80;36.00
9414;DHT22;4746;35.664;139.738;2024-02-26T04:44:37;12.90;35.30
9414;DHT22;4746;35.664;139.738;2024-02-26T04:47:05;12.80;33.50
9414;DHT22;4746;35.664;139.738;2024-02-26T04:49:34;12.80;33.50
9414;DHT22;4746;35.664;139.738;2024-02-26T04:52:01;12.80;32.80
9414;DHT22;4746;35.664;139.738;2024-02-26T04:54:29;12.90;33.30
9414;DHT22;4746;35.664;139.738;2024-02-26T04:56:57;12.80;32.80
9414;DHT22;4746;35.664;139.738;2024-02-26T04:59:25;12.80;32.90
9414;DHT22;4746;35.664;139.738;2024-02-26T05:01:52;12.90;32.70
9414;DHT22;4746;35.664;139.738;2024-02-26T05:04:20;12.90;30.90
9414;DHT22;4746;35.664;139.738;2024-02-26T05:06:48;13.00;30.40
9414;DHT22;4746;35.664;139.738;2024-02-26T05:09:15;13.10;29.40
9414;DHT22;4746;35.664;139.738;2024-02-26T05:11:43;13.20;29.10
9414;DHT22;4746;35.664;139.738;2024-02-26T05:14:13;13.30;28.70
9414;DHT22;4746;35.664;139.738;2024-02-26T05:16:43;13.50;28.80
9414;DHT22;4746;35.664;139.738;2024-02-26T05:19:12;13.50;28.80
9414;DHT22;4746;35.664;139.738;2024-02-26T05:21:39;13.80;29.40
9414;DHT22;4746;35.664;139.738;2024-02-26T05:24:09;14.20;29.10
9414;DHT22;4746;35.664;139.738;2024-02-26T05:26:40;14.20;26.90
9414;DHT22;4746;35.664;139.738;2024-02-26T05:29:17;14.50;26.90
9414;DHT22;4746;35.664;139.738;2024-02-26T05:31:48;14.50;26.30
9414;DHT22;4746;35.664;139.738;2024-02-26T05:34:24;14.70;26.50
9414;DHT22;4746;35.664;139.738;2024-02-26T05:37:00;15.00;26.50
9414;DHT22;4746;35.664;139.738;2024-02-26T05:39:33;15.30;26.30
9414;DHT22;4746;35.664;139.738;2024-02-26T05:42:05;15.20;25.90
9414;DHT22;4746;35.664;139.738;2024-02-26T05:44:35;15.00;25.50
9414;DHT22;4746;35.664;139.738;2024-02-26T05:47:03;14.80;25.10
9414;DHT22;4746;35.664;139.738;2024-02-26T05:49:37;14.90;24.70
9414;DHT22;4746;35.664;139.738;2024-02-26T05:52:10;15.00;25.00
9414;DHT22;4746;35.664;139.738;2024-02-26T05:54:38;14.80;25.10
9414;DHT22;4746;35.664;139.738;2024-02-26T05:57:06;15.20;25.30
9414;DHT22;4746;35.664;139.738;2024-02-26T05:59:36;15.20;25.30
9414;DHT22;4746;35.664;139.738;2024-02-26T06:02:10;15.10;25.40
9414;DHT22;4746;35.664;139.738;2024-02-26T06:04:44;15.30;25.10
9414;DHT22;4746;35.664;139.738;2024-02-26T06:07:13;15.40;24.90
9414;DHT22;4746;35.664;139.738;2024-02-26T06:09:43;15.00;24.20
9414;DHT22;4746;35.664;139.738;2024-02-26T06:12:10;14.90;24.40
9414;DHT22;4746;35.664;139.738;2024-02-26T06:14:39;15.20;24.40
9414;DHT22;4746;35.664;139.738;2024-02-26T06:17:08;15.10;24.10
9414;DHT22;4746;35.664;139.738;2024-02-26T06:19:36;15.10;23.70
9414;DHT22;4746;35.664;139.738;2024-02-26T06:22:03;15.00;23.50
9414;DHT22;4746;35.664;139.738;2024-02-26T06:24:34;15.00;22.00
9414;DHT22;4746;35.664;139.738;2024-02-26T06:27:02;15.30;22.40
9414;DHT22;4746;35.664;139.738;2024-02-26T06:29:29;15.10;22.00
9414;DHT22;4746;35.664;139.738;2024-02-26T06:31:57;15.40;22.30
9414;DHT22;4746;35.664;139.738;2024-02-26T06:34:25;15.50;22.10
9414;DHT22;4746;35.664;139.738;2024-02-26T06:36:52;15.40;22.00
9414;DHT22;4746;35.664;139.738;2024-02-26T06:39:20;15.10;21.10
9414;DHT22;4746;35.664;139.738;2024-02-26T06:41:52;15.00;21.60
9414;DHT22;4746;35.664;139.738;2024-02-26T06:44:27;14.80;21.50
9414;DHT22;4746;35.664;139.738;2024-02-26T06:47:02;14.90;21.60
9414;DHT22;4746;35.664;139.738;2024-02-26T06:49:30;15.40;21.90
9414;DHT22;4746;35.664;139.738;2024-02-26T06:51:58;15.80;22.00
9414;DHT22;4746;35.664;139.738;2024-02-26T06:54:27;16.00;21.90
9414;DHT22;4746;35.664;139.738;2024-02-26T06:56:56;15.80;21.60
9414;DHT22;4746;35.664;139.738;2024-02-26T06:59:32;15.20;21.90
9414;DHT22;4746;35.664;139.738;2024-02-26T07:02:01;15.70;23.10
9414;DHT22;4746;35.664;139.738;2024-02-26T07:04:29;16.00;22.80
9414;DHT22;4746;35.664;139.738;2024-02-26T07:07:00;16.20;22.80
9414;DHT22;4746;35.664;139.738;2024-02-26T07:09:27;16.10;22.50
9414;DHT22;4746;35.664;139.738;2024-02-26T07:11:55;16.10;22.60
9414;DHT22;4746;35.664;139.738;2024-02-26T07:14:23;16.40;22.80
9414;DHT22;4746;35.664;139.738;2024-02-26T07:16:51;16.50;22.40
9414;DHT22;4746;35.664;139.738;2024-02-26T07:19:18;16.20;22.20
9414;DHT22;4746;35.664;139.738;2024-02-26T07:21:46;16.00;22.00
9414;DHT22;4746;35.664;139.738;2024-02-26T07:24:16;16.00;21.40
9414;DHT22;4746;35.664;139.738;2024-02-26T07:26:44;15.90;21.60
9414;DHT22;4746;35.664;139.738;2024-02-26T07:29:13;16.00;21.50
9414;DHT22;4746;35.664;139.738;2024-02-26T07:31:43;15.60;21.50
9414;DHT22;4746;35.664;139.738;2024-02-26T07:34:13;15.60;21.90
9414;DHT22;4746;35.664;139.738;2024-02-26T07:36:41;15.40;22.60
9414;DHT22;4746;35.664;139.738;2024-02-26T07:39:09;15.00;22.80
9414;DHT22;4746;35.664;139.738;2024-02-26T07:41:37;15.10;23.30
9414;DHT22;4746;35.664;139.738;2024-02-26T07:44:05;14.80;23.50
9414;DHT22;4746;35.664;139.738;2024-02-26T07:46:35;14.80;23.90
9414;DHT22;4746;35.664;139.738;2024-02-26T07:49:05;14.80;23.90
9414;DHT22;4746;35.664;139.738;2024-02-26T07:51:34;14.20;23.30
9414;DHT22;4746;35.664;139.738;2024-02-26T07:54:02;14.10;23.50
9414;DHT22;4746;35.664;139.738;2024-02-26T07:56:32;14.20;23.90
9414;DHT22;4746;35.664;139.738;2024-02-26T07:59:03;13.90;23.30
9414;DHT22;4746;35.664;139.738;2024-02-26T08:01:30;13.70;23.60
9414;DHT22;4746;35.664;139.738;2024-02-26T08:04:00;13.50;23.60
9414;DHT22;4746;35.664;139.738;2024-02-26T08:06:28;13.40;23.70
9414;DHT22;4746;35.664;139.738;2024-02-26T08:08:56;13.20;23.50
9414;DHT22;4746;35.664;139.738;2024-02-26T08:11:23;13.10;23.40
9414;DHT22;4746;35.664;139.738;2024-02-26T08:13:51;12.80;23.30
9414;DHT22;4746;35.664;139.738;2024-02-26T08:16:18;12.20;23.30
9414;DHT22;4746;35.664;139.738;2024-02-26T08:18:46;12.00;23.90
9414;DHT22;4746;35.664;139.738;2024-02-26T08:21:13;12.00;24.70
9414;DHT22;4746;35.664;139.738;2024-02-26T08:23:42;11.70;24.70
9414;DHT22;4746;35.664;139.738;2024-02-26T08:26:10;11.40;24.80
9414;DHT22;4746;35.664;139.738;2024-02-26T08:28:38;11.10;25.10
9414;DHT22;4746;35.664;139.738;2024-02-26T08:31:06;10.90;25.30
9414;DHT22;4746;35.664;139.738;2024-02-26T08:33:37;10.50;25.40
9414;DHT22;4746;35.664;139.738;2024-02-26T08:36:06;10.20;25.50
9414;DHT22;4746;35.664;139.738;2024-02-26T08:38:33;9.90;26.30
9414;DHT22;4746;35.664;139.738;2024-02-26T08:41:05;9.70;26.70
9414;DHT22;4746;35.664;139.738;2024-02-26T08:43:37;9.50;27.60
9414;DHT22;4746;35.664;139.738;2024-02-26T08:46:07;9.40;27.30
9414;DHT22;4746;35.664;139.738;2024-02-26T08:48:36;9.20;27.60
9414;DHT22;4746;35.664;139.738;2024-02-26T08:51:09;9.20;27.80
9414;DHT22;4746;35.664;139.738;2024-02-26T08:53:37;8.90;27.80
9414;DHT22;4746;35.664;139.738;2024-02-26T08:56:06;8.90;28.10
9414;DHT22;4746;35.664;139.738;2024-02-26T08:58:34;8.80;28.30
9414;DHT22;4746;35.664;139.738;2024-02-26T09:01:02;8.70;29.10
9414;DHT22;4746;35.664;139.738;2024-02-26T09:03:29;8.60;28.90
9414;DHT22;4746;35.664;139.738;2024-02-26T09:05:57;8.60;28.90
9414;DHT22;4746;35.664;139.738;2024-02-26T09:08:24;8.50;29.20
9414;DHT22;4746;35.664;139.738;2024-02-26T09:10:53;8.50;29.20
9414;DHT22;4746;35.664;139.738;2024-02-26T09:13:20;8.50;29.20
9414;DHT22;4746;35.664;139.738;2024-02-26T09:15:48;8.50;29.20
9414;DHT22;4746;35.664;139.738;2024-02-26T09:18:16;8.40;29.10
9414;DHT22;4746;35.664;139.738;2024-02-26T09:20:43;8.30;29.10
9414;DHT22;4746;35.664;139.738;2024-02-26T09:23:11;8.30;29.40
9414;DHT22;4746;35.664;139.738;2024-02-26T09:25:38;8.30;29.50
9414;DHT22;4746;35.664;139.738;2024-02-26T09:28:06;8.30;29.70
9414;DHT22;4746;35.664;139.738;2024-02-26T09:30:35;8.30;29.20
9414;DHT22;4746;35.664;139.738;2024-02-26T09:33:02;8.30;29.20
9414;DHT22;4746;35.664;139.738;2024-02-26T09:35:30;8.30;29.70
9414;DHT22;4746;35.664;139.738;2024-02-26T09:37:57;8.30;30.00
9414;DHT22;4746;35.664;139.738;2024-02-26T09:40:25;8.20;29.70
9414;DHT22;4746;35.664;139.738;2024-02-26T09:43:00;8.20;30.70
9414;DHT22;4746;35.664;139.738;2024-02-26T09:45:33;8.30;32.40
9414;DHT22;4746;35.664;139.738;2024-02-26T09:48:03;8.40;33.40
9414;DHT22;4746;35.664;139.738;2024-02-26T09:50:35;8.40;33.60
9414;DHT22;4746;35.664;139.738;2024-02-26T09:53:04;8.40;33.80
9414;DHT22;4746;35.664;139.738;2024-02-26T09:55:34;8.40;33.00
9414;DHT22;4746;35.664;139.738;2024-02-26T09:58:02;8.30;32.30
9414;DHT22;4746;35.664;139.738;2024-02-26T10:00:38;8.30;32.40
9414;DHT22;4746;35.664;139.738;2024-02-26T10:03:13;8.20;31.00
9414;DHT22;4746;35.664;139.738;2024-02-26T10:05:42;8.20;30.60
9414;DHT22;4746;35.664;139.738;2024-02-26T10:08:12;8.10;30.30
9414;DHT22;4746;35.664;139.738;2024-02-26T10:10:41;8.10;30.60
9414;DHT22;4746;35.664;139.738;2024-02-26T10:13:09;8.10;30.50
9414;DHT22;4746;35.664;139.738;2024-02-26T10:15:39;8.10;30.50
9414;DHT22;4746;35.664;139.738;2024-02-26T10:18:07;8.00;30.40
9414;DHT22;4746;35.664;139.738;2024-02-26T10:20:34;8.00;30.60
9414;DHT22;4746;35.664;139.738;2024-02-26T10:23:05;7.90;31.40
9414;DHT22;4746;35.664;139.738;2024-02-26T10:25:34;7.90;30.90
9414;DHT22;4746;35.664;139.738;2024-02-26T10:28:02;7.90;30.80
9414;DHT22;4746;35.664;139.738;2024-02-26T10:30:30;7.90;31.30
9414;DHT22;4746;35.664;139.738;2024-02-26T10:32:58;7.90;31.00
9414;DHT22;4746;35.664;139.738;2024-02-26T10:35:26;7.90;31.00
9414;DHT22;4746;35.664;139.738;2024-02-26T10:37:54;7.90;31.00
9414;DHT22;4746;35.664;139.738;2024-02-26T10:40:22;7.80;30.80
9414;DHT22;4746;35.664;139.738;2024-02-26T10:42:50;7.80;31.80
9414;DHT22;4746;35.664;139.738;2024-02-26T10:45:18;7.80;31.10
9414;DHT22;4746;35.664;139.738;2024-02-26T10:47:46;7.80;31.40
9414;DHT22;4746;35.664;139.738;2024-02-26T10:50:14;7.80;31.10
9414;DHT22;4746;35.664;139.738;2024-02-26T10:52:43;7.80;30.90
9414;DHT22;4746;35.664;139.738;2024-02-26T10:55:17;7.70;31.00
9414;DHT22;4746;35.664;139.738;2024-02-26T10:57:46;7.70;31.20
9414;DHT22;4746;35.664;139.738;2024-02-26T11:00:17;7.70;31.40
9414;DHT22;4746;35.664;139.738;2024-02-26T11:02:46;7.60;31.60
9414;DHT22;4746;35.664;139.738;2024-02-26T11:05:16;7.70;33.00
9414;DHT22;4746;35.664;139.738;2024-02-26T11:07:45;7.80;33.80
9414;DHT22;4746;35.664;139.738;2024-02-26T11:10:16;7.80;35.30
9414;DHT22;4746;35.664;139.738;2024-02-26T11:12:46;7.80;34.40
9414;DHT22;4746;35.664;139.738;2024-02-26T11:15:16;7.80;34.90
9414;DHT22;4746;35.664;139.738;2024-02-26T11:17:46;7.70;35.10
9414;DHT22;4746;35.664;139.738;2024-02-26T11:20:15;7.60;34.30
9414;DHT22;4746;35.664;139.738;2024-02-26T11:22:44;7.60;35.10
9414;DHT22;4746;35.664;139.738;2024-02-26T11:25:12;7.40;35.30
9414;DHT22;4746;35.664;139.738;2024-02-26T11:27:55;7.40;35.90
9414;DHT22;4746;35.664;139.738;2024-02-26T11:30:31;7.30;36.00
9414;DHT22;4746;35.664;139.738;2024-02-26T11:33:08;7.20;36.70
9414;DHT22;4746;35.664;139.738;2024-02-26T11:35:39;7.20;37.80
9414;DHT22;4746;35.664;139.738;2024-02-26T11:38:07;7.20;39.00
9414;DHT22;4746;35.664;139.738;2024-02-26T11:40:38;7.20;40.30
9414;DHT22;4746;35.664;139.738;2024-02-26T11:43:08;7.10;40.20
9414;DHT22;4746;35.664;139.738;2024-02-26T11:48:15;6.90;41.80
9414;DHT22;4746;35.664;139.738;2024-02-26T11:50:54;6.90;42.40
9414;DHT22;4746;35.664;139.738;2024-02-26T11:53:32;6.90;44.30
9414;DHT22;4746;35.664;139.738;2024-02-26T11:58:45;6.70;48.60
9414;DHT22;4746;35.664;139.738;2024-02-26T12:04:18;6.60;53.90
9414;DHT22;4746;35.664;139.738;2024-02-26T12:07:01;6.50;57.30
9414;DHT22;4746;35.664;139.738;2024-02-26T12:09:42;6.50;66.10
9414;DHT22;4746;35.664;139.738;2024-02-26T12:12:13;6.50;73.20
9414;DHT22;4746;35.664;139.738;2024-02-26T12:14:53;6.50;89.00
9414;DHT22;4746;35.664;139.738;2024-02-26T12:17:24;6.40;86.00
9414;DHT22;4746;35.664;139.738;2024-02-26T12:19:53;6.40;86.20
9414;DHT22;4746;35.664;139.738;2024-02-26T12:22:22;6.40;92.60
9414;DHT22;4746;35.664;139.738;2024-02-26T12:25:01;6.40;85.60
9414;DHT22;4746;35.664;139.738;2024-02-26T12:27:32;6.40;95.80
9414;DHT22;4746;35.664;139.738;2024-02-26T12:30:03;6.40;86.60
9414;DHT22;4746;35.664;139.738;2024-02-26T12:32:32;6.40;90.60
9414;DHT22;4746;35.664;139.738;2024-02-26T12:35:01;6.40;87.40
9414;DHT22;4746;35.664;139.738;2024-02-26T12:37:29;6.40;85.20
9414;DHT22;4746;35.664;139.738;2024-02-26T12:39:56;6.40;85.20
9414;DHT22;4746;35.664;139.738;2024-02-26T12:42:24;6.40;81.80
9414;DHT22;4746;35.664;139.738;2024-02-26T12:44:53;6.40;84.90
9414;DHT22;4746;35.664;139.738;2024-02-26T12:47:21;6.40;99.90
9414;DHT22;4746;35.664;139.738;2024-02-26T12:49:48;6.50;79.60
9414;DHT22;4746;35.664;139.738;2024-02-26T12:52:17;6.50;71.20
9414;DHT22;4746;35.664;139.738;2024-02-26T12:54:45;6.50;73.80
9414;DHT22;4746;35.664;139.738;2024-02-26T12:57:13;6.60;67.10
9414;DHT22;4746;35.664;139.738;2024-02-26T12:59:40;6.50;64.90
9414;DHT22;4746;35.664;139.738;2024-02-26T13:02:08;6.50;65.90
9414;DHT22;4746;35.664;139.738;2024-02-26T13:04:38;6.50;58.60
9414;DHT22;4746;35.664;139.738;2024-02-26T13:07:07;6.50;59.80
9414;DHT22;4746;35.664;139.738;2024-02-26T13:09:35;6.60;59.30
9414;DHT22;4746;35.664;139.738;2024-02-26T13:12:07;6.60;57.30
9414;DHT22;4746;35.664;139.738;2024-02-26T13:14:35;6.60;56.60
9414;DHT22;4746;35.664;139.738;2024-02-26T13:17:03;6.60;53.70
9414;DHT22;4746;35.664;139.738;2024-02-26T13:19:33;6.60;54.20
9414;DHT22;4746;35.664;139.738;2024-02-26T13:22:05;6.60;59.20
9414;DHT22;4746;35.664;139.738;2024-02-26T13:24:36;6.60;52.80
9414;DHT22;4746;35.664;139.738;2024-02-26T13:27:04;6.60;56.10
9414;DHT22;4746;35.664;139.738;2024-02-26T13:29:32;6.70;54.30
9414;DHT22;4746;35.664;139.738;2024-02-26T13:32:00;6.60;50.50
9414;DHT22;4746;35.664;139.738;2024-02-26T13:34:29;6.70;49.40
9414;DHT22;4746;35.664;139.738;2024-02-26T13:36:57;6.70;49.20
9414;DHT22;4746;35.664;139.738;2024-02-26T13:39:27;6.70;48.10
9414;DHT22;4746;35.664;139.738;2024-02-26T13:41:55;6.70;47.50
9414;DHT22;4746;35.664;139.738;2024-02-26T13:44:24;6.70;47.90
9414;DHT22;4746;35.664;139.738;2024-02-26T13:46:51;6.70;49.30
9414;DHT22;4746;35.664;139.738;2024-02-26T13:49:19;6.70;47.80
9414;DHT22;4746;35.664;139.738;2024-02-26T13:51:46;6.70;48.00
9414;DHT22;4746;35.664;139.738;2024-02-26T13:54:14;6.60;47.20
9414;DHT22;4746;35.664;139.738;2024-02-26T13:56:41;6.60;48.00
9414;DHT22;4746;35.664;139.738;2024-02-26T13:59:10;6.60;48.70
9414;DHT22;4746;35.664;139.738;2024-02-26T14:01:37;6.60;48.80
9414;DHT22;4746;35.664;139.738;2024-02-26T14:04:05;6.50;48.60
9414;DHT22;4746;35.664;139.738;2024-02-26T14:06:35;6.50;49.30
9414;DHT22;4746;35.664;139.738;2024-02-26T14:09:02;6.50;50.00
9414;DHT22;4746;35.664;139.738;2024-02-26T14:11:30;6.50;50.00
9414;DHT22;4746;35.664;139.738;2024-02-26T14:13:58;6.50;48.80
9414;DHT22;4746;35.664;139.738;2024-02-26T14:16:25;6.40;48.60
9414;DHT22;4746;35.664;139.738;2024-02-26T14:18:53;6.40;49.50
9414;DHT22;4746;35.664;139.738;2024-02-26T14:21:21;6.30;48.70
9414;DHT22;4746;35.664;139.738;2024-02-26T14:23:48;6.30;48.70
9414;DHT22;4746;35.664;139.738;2024-02-26T14:26:16;6.20;47.90
9414;DHT22;4746;35.664;139.738;2024-02-26T14:28:45;6.20;48.50
9414;DHT22;4746;35.664;139.738;2024-02-26T14:31:16;6.20;48.70
9414;DHT22;4746;35.664;139.738;2024-02-26T14:33:45;6.20;48.60
9414;DHT22;4746;35.664;139.738;2024-02-26T14:36:12;6.10;49.10
9414;DHT22;4746;35.664;139.738;2024-02-26T14:38:41;6.10;49.30
9414;DHT22;4746;35.664;139.738;2024-02-26T14:41:08;6.10;50.20
9414;DHT22;4746;35.664;139.738;2024-02-26T14:43:36;6.10;49.30
9414;DHT22;4746;35.664;139.738;2024-02-26T14:46:04;6.00;49.00
9414;DHT22;4746;35.664;139.738;2024-02-26T14:48:31;6.00;50.10
9414;DHT22;4746;35.664;139.738;2024-02-26T14:51:00;6.00;50.40
9414;DHT22;4746;35.664;139.738;2024-02-26T14:53:27;6.00;50.30
9414;DHT22;4746;35.664;139.738;2024-02-26T14:55:57;6.00;50.70
9414;DHT22;4746;35.664;139.738;2024-02-26T14:58:25;5.90;51.40
9414;DHT22;4746;35.664;139.738;2024-02-26T15:00:53;5.90;52.30
9414;DHT22;4746;35.664;139.738;2024-02-26T15:03:21;5.90;52.10
9414;DHT22;4746;35.664;139.738;2024-02-26T15:05:50;5.90;51.40
9414;DHT22;4746;35.664;139.738;2024-02-26T15:08:18;5.90;51.00
9414;DHT22;4746;35.664;139.738;2024-02-26T15:10:45;5.90;50.30
9414;DHT22;4746;35.664;139.738;2024-02-26T15:13:16;5.90;50.70
9414;DHT22;4746;35.664;139.738;2024-02-26T15:15:47;5.90;50.40
9414;DHT22;4746;35.664;139.738;2024-02-26T15:18:14;5.90;49.20
9414;DHT22;4746;35.664;139.738;2024-02-26T15:20:42;5.90;48.30
9414;DHT22;4746;35.664;139.738;2024-02-26T15:23:13;5.90;47.40
9414;DHT22;4746;35.664;139.738;2024-02-26T15:25:42;5.90;47.50
9414;DHT22;4746;35.664;139.738;2024-02-26T15:28:10;5.90;47.60
9414;DHT22;4746;35.664;139.738;2024-02-26T15:30:40;5.90;47.70
9414;DHT22;4746;35.664;139.738;2024-02-26T15:33:08;5.90;48.20
9414;DHT22;4746;35.664;139.738;2024-02-26T15:35:36;5.90;48.50
9414;DHT22;4746;35.664;139.738;2024-02-26T15:38:04;5.80;49.30
9414;DHT22;4746;35.664;139.738;2024-02-26T15:40:31;5.80;50.40
9414;DHT22;4746;35.664;139.738;2024-02-26T15:42:59;5.80;51.80
9414;DHT22;4746;35.664;139.738;2024-02-26T15:45:27;5.70;51.70
9414;DHT22;4746;35.664;139.738;2024-02-26T15:48:00;5.70;52.30
9414;DHT22;4746;35.664;139.738;2024-02-26T15:50:27;5.70;53.70
9414;DHT22;4746;35.664;139.738;2024-02-26T15:52:55;5.60;54.80
9414;DHT22;4746;35.664;139.738;2024-02-26T15:55:24;5.60;55.20
9414;DHT22;4746;35.664;139.738;2024-02-26T15:57:52;5.60;55.50
9414;DHT22;4746;35.664;139.738;2024-02-26T16:00:19;5.70;55.60